createdAt,value
2018-12-25T00:00:58.137Z,102404.36
2018-12-25T00:03:26.329Z,102418.84
2018-12-25T00:05:54.566Z,102426.17
2018-12-25T00:08:22.768Z,102430.27
2018-12-25T00:10:50.988Z,102423.45
2018-12-25T00:13:19.186Z,102425.30
2018-12-25T00:15:47.407Z,102431.23
2018-12-25T00:18:15.617Z,102426.66
2018-12-25T00:20:43.841Z,102427.14
2018-12-25T00:23:12.039Z,102421.69
2018-12-25T00:25:40.264Z,102427.54
2018-12-25T00:28:08.472Z,102432.22
2018-12-25T00:30:36.709Z,102427.25
2018-12-25T00:33:05.004Z,102429.50
2018-12-25T00:35:33.199Z,102426.29
2018-12-25T00:38:01.446Z,102424.41
2018-12-25T00:40:29.648Z,102417.23
2018-12-25T00:42:57.842Z,102414.50
2018-12-25T00:45:26.078Z,102408.16
2018-12-25T00:47:54.280Z,102411.88
2018-12-25T00:50:22.520Z,102412.25
2018-12-25T00:52:50.742Z,102405.55
2018-12-25T00:55:18.926Z,102405.44
2018-12-25T00:57:47.149Z,102406.91
2018-12-25T01:00:15.358Z,102402.70
2018-12-25T01:02:43.568Z,102406.91
2018-12-25T01:05:11.788Z,102410.63
2018-12-25T01:07:40.008Z,102414.36
2018-12-25T01:10:08.256Z,102417.56
2018-12-25T01:12:36.445Z,102415.83
2018-12-25T01:15:04.860Z,102433.04
2018-12-25T01:17:33.063Z,102435.28
2018-12-25T01:20:01.380Z,102448.03
2018-12-25T01:22:29.655Z,102451.76
2018-12-25T01:24:57.859Z,102459.06
2018-12-25T01:27:26.087Z,102462.30
2018-12-25T01:29:54.310Z,102455.08
2018-12-25T01:32:22.511Z,102457.80
2018-12-25T01:34:50.711Z,102463.77
2018-12-25T01:37:18.928Z,102464.25
2018-12-25T01:39:47.151Z,102465.98
2018-12-25T01:42:15.352Z,102467.34
2018-12-25T01:44:43.642Z,102461.53
2018-12-25T01:47:11.866Z,102462.89
2018-12-25T01:49:40.097Z,102459.17
2018-12-25T01:52:08.292Z,102457.44
2018-12-25T01:54:36.488Z,102455.70
2018-12-25T01:57:04.716Z,102465.73
2018-12-25T01:59:32.926Z,102465.14
2018-12-25T02:02:01.159Z,102464.73
2018-12-25T02:04:29.362Z,102469.41
2018-12-25T02:06:57.650Z,102459.87
2018-12-25T02:09:25.882Z,102450.84
2018-12-25T02:11:54.074Z,102456.30
2018-12-25T02:14:22.305Z,102460.39
2018-12-25T02:16:50.513Z,102466.32
2018-12-25T02:19:18.713Z,102457.66
2018-12-25T02:21:46.942Z,102461.75
2018-12-25T02:24:15.186Z,102459.98
2018-12-25T02:26:43.400Z,102465.44
2018-12-25T02:29:11.622Z,102457.26
2018-12-25T02:31:39.819Z,102460.39
2018-12-25T02:34:08.040Z,102461.23
2018-12-25T02:36:36.245Z,102460.39
2018-12-25T02:39:06.919Z,102455.89
2018-12-25T02:41:35.116Z,102455.05
2018-12-25T02:44:03.346Z,102454.16
2018-12-25T02:46:31.572Z,102456.52
2018-12-25T02:48:59.767Z,102456.52
2018-12-25T02:51:27.990Z,102458.36
2018-12-25T02:53:56.184Z,102452.42
2018-12-25T02:56:24.399Z,102453.79
2018-12-25T02:58:52.610Z,102443.48
2018-12-25T03:01:20.804Z,102437.14
2018-12-25T03:03:49.021Z,102435.78
2018-12-25T03:06:17.266Z,102435.41
2018-12-25T03:08:45.491Z,102434.92
2018-12-25T03:11:13.712Z,102434.41
2018-12-25T03:13:41.899Z,102432.57
2018-12-25T03:16:10.122Z,102435.30
2018-12-25T03:18:38.316Z,102440.75
2018-12-25T03:21:06.540Z,102435.78
2018-12-25T03:23:34.751Z,102432.57
2018-12-25T03:26:02.954Z,102434.41
2018-12-25T03:28:31.172Z,102433.05
2018-12-25T03:30:59.416Z,102430.84
2018-12-25T03:33:27.623Z,102427.70
2018-12-25T03:35:55.875Z,102435.04
2018-12-25T03:38:24.229Z,102433.67
2018-12-25T03:40:52.374Z,102424.98
2018-12-25T03:43:20.596Z,102427.34
2018-12-25T03:45:48.813Z,102427.70
2018-12-25T03:48:17.038Z,102423.62
2018-12-25T03:50:45.230Z,102414.59
2018-12-25T03:53:13.474Z,102414.08
2018-12-25T03:55:41.658Z,102425.38
2018-12-25T03:58:09.878Z,102431.20
2018-12-25T04:00:38.089Z,102434.81
2018-12-25T04:03:06.312Z,102439.39
2018-12-25T04:05:34.514Z,102438.39
2018-12-25T04:08:02.714Z,102435.66
2018-12-25T04:10:30.946Z,102432.46
2018-12-25T04:12:59.148Z,102428.37
2018-12-25T04:15:27.526Z,102424.77
2018-12-25T04:17:55.736Z,102423.28
2018-12-25T04:20:23.968Z,102420.08
2018-12-25T04:22:52.162Z,102424.65
2018-12-25T04:25:20.370Z,102431.98
2018-12-25T04:27:48.569Z,102435.95
2018-12-25T04:30:16.802Z,102434.19
2018-12-25T04:32:45.008Z,102433.71
2018-12-25T04:35:13.221Z,102435.55
2018-12-25T04:37:41.433Z,102438.17
2018-12-25T04:40:09.638Z,102430.98
2018-12-25T04:42:37.826Z,102435.55
2018-12-25T04:45:06.055Z,102435.07
2018-12-25T04:47:34.240Z,102429.63
2018-12-25T04:50:02.467Z,102433.71
2018-12-25T04:52:30.684Z,102434.08
2018-12-25T04:54:58.890Z,102434.08
2018-12-25T04:57:27.106Z,102432.34
2018-12-25T04:59:55.299Z,102434.08
2018-12-25T05:02:23.531Z,102437.32
2018-12-25T05:04:51.719Z,102445.39
2018-12-25T05:07:19.936Z,102442.27
2018-12-25T05:09:48.158Z,102442.77
2018-12-25T05:12:16.362Z,102439.53
2018-12-25T05:14:44.575Z,102437.20
2018-12-25T05:17:12.781Z,102432.34
2018-12-25T05:19:41.009Z,102433.23
2018-12-25T05:22:09.219Z,102436.06
2018-12-25T05:24:37.461Z,102443.25
2018-12-25T05:27:05.666Z,102441.41
2018-12-25T05:29:33.878Z,102440.53
2018-12-25T05:32:02.076Z,102438.69
2018-12-25T05:34:30.292Z,102443.25
2018-12-25T05:36:58.495Z,102447.34
2018-12-25T05:39:26.749Z,102443.73
2018-12-25T05:41:54.946Z,102446.34
2018-12-25T05:44:23.159Z,102442.27
2018-12-25T05:46:51.374Z,102444.98
2018-12-25T05:49:19.598Z,102440.90
2018-12-25T05:51:47.792Z,102442.77
2018-12-25T05:54:16.012Z,102439.53
2018-12-25T05:56:44.231Z,102437.20
2018-12-25T05:59:12.535Z,102434.48
2018-12-25T06:01:40.692Z,102447.23
2018-12-25T06:04:08.900Z,102448.59
2018-12-25T06:06:37.138Z,102454.53
2018-12-25T06:09:06.670Z,102459.50
2018-12-25T06:11:34.878Z,102458.14
2018-12-25T06:14:03.084Z,102459.02
2018-12-25T06:16:31.308Z,102459.87
2018-12-25T06:18:59.501Z,102464.07
2018-12-25T06:21:27.738Z,102469.05
2018-12-25T06:23:55.939Z,102474.02
2018-12-25T06:26:24.142Z,102461.34
2018-12-25T06:28:52.361Z,102455.41
2018-12-25T06:31:21.517Z,102443.51
2018-12-25T06:33:49.785Z,102441.30
2018-12-25T06:36:17.999Z,102444.88
2018-12-25T06:38:46.205Z,102445.39
2018-12-25T06:41:14.435Z,102443.14
2018-12-25T06:43:42.669Z,102450.33
2018-12-25T06:46:10.880Z,102452.57
2018-12-25T06:48:39.106Z,102448.11
2018-12-25T06:51:07.312Z,102442.27
2018-12-25T06:53:35.544Z,102437.69
2018-12-25T06:56:03.749Z,102438.06
2018-12-25T06:58:31.985Z,102434.08
2018-12-25T07:01:00.189Z,102427.67
2018-12-25T07:03:28.415Z,102439.42
2018-12-25T07:05:56.665Z,102433.60
2018-12-25T07:08:24.865Z,102439.94
2018-12-25T07:10:53.062Z,102444.03
2018-12-25T07:13:21.271Z,102440.41
2018-12-25T07:15:49.502Z,102439.94
2018-12-25T07:18:17.705Z,102445.76
2018-12-25T07:20:45.951Z,102445.39
2018-12-25T07:23:14.150Z,102450.33
2018-12-25T07:25:42.366Z,102449.48
2018-12-25T07:28:10.556Z,102447.23
2018-12-25T07:30:38.870Z,102457.55
2018-12-25T07:33:07.063Z,102459.39
2018-12-25T07:35:35.304Z,102464.84
2018-12-25T07:38:03.502Z,102460.75
2018-12-25T07:40:31.752Z,102453.56
2018-12-25T07:42:59.954Z,102456.30
2018-12-25T07:45:28.180Z,102454.93
2018-12-25T07:47:56.379Z,102450.84
2018-12-25T07:50:24.589Z,102446.75
2018-12-25T07:52:52.804Z,102444.88
2018-12-25T07:55:21.030Z,102441.30
2018-12-25T07:57:49.228Z,102439.94
2018-12-25T08:00:19.541Z,102453.45
2018-12-25T08:02:47.402Z,102451.21
2018-12-25T08:05:15.602Z,102452.20
2018-12-25T08:07:43.830Z,102451.21
2018-12-25T08:10:12.040Z,102455.19
2018-12-25T08:12:40.262Z,102455.19
2018-12-25T08:15:08.462Z,102451.10
2018-12-25T08:17:36.675Z,102446.89
2018-12-25T08:20:06.318Z,102444.06
2018-12-25T08:22:34.534Z,102440.73
2018-12-25T08:25:02.729Z,102439.01
2018-12-25T08:27:30.940Z,102441.22
2018-12-25T08:29:59.162Z,102441.73
2018-12-25T08:32:27.350Z,102426.84
2018-12-25T08:34:55.572Z,102422.25
2018-12-25T08:37:23.794Z,102427.22
2018-12-25T08:39:52.113Z,102431.31
2018-12-25T08:42:20.403Z,102438.23
2018-12-25T08:44:48.598Z,102438.12
2018-12-25T08:47:16.800Z,102442.22
2018-12-25T08:49:45.021Z,102434.92
2018-12-25T08:52:13.225Z,102429.47
2018-12-25T08:54:41.455Z,102435.28
2018-12-25T08:57:09.701Z,102445.31
2018-12-25T08:59:37.904Z,102453.49
2018-12-25T09:02:06.138Z,102453.02
2018-12-25T09:04:34.344Z,102452.53
2018-12-25T09:07:02.552Z,102452.53
2018-12-25T09:09:30.771Z,102449.29
2018-12-25T09:11:58.990Z,102449.70
2018-12-25T09:14:27.188Z,102449.95
2018-12-25T09:16:55.496Z,102452.56
2018-12-25T09:19:23.728Z,102452.09
2018-12-25T09:21:51.950Z,102455.66
2018-12-25T09:24:20.152Z,102457.42
2018-12-25T09:26:48.408Z,102461.41
2018-12-25T09:29:16.602Z,102462.14
2018-12-25T09:31:44.800Z,102447.91
2018-12-25T09:34:13.051Z,102445.95
2018-12-25T09:36:41.252Z,102455.02
2018-12-25T09:39:09.481Z,102470.39
2018-12-25T09:41:37.690Z,102478.46
2018-12-25T09:44:05.878Z,102481.08
2018-12-25T09:46:33.464Z,102480.20
2018-12-25T09:49:01.644Z,102477.47
2018-12-25T09:51:29.868Z,102479.23
2018-12-25T09:53:58.077Z,102476.51
2018-12-25T09:56:26.306Z,102462.86
2018-12-25T09:58:54.496Z,102467.33
2018-12-25T10:01:22.800Z,102476.28
2018-12-25T10:03:51.018Z,102466.73
2018-12-25T10:06:19.250Z,102464.37
2018-12-25T10:08:47.456Z,102472.44
2018-12-25T10:11:15.692Z,102471.97
2018-12-25T10:13:43.910Z,102469.60
2018-12-25T10:16:12.121Z,102470.74
2018-12-25T10:18:40.354Z,102462.95
2018-12-25T10:21:08.569Z,102470.52
2018-12-25T10:23:36.784Z,102469.55
2018-12-25T10:26:05.019Z,102463.13
2018-12-25T10:28:33.295Z,102466.23
2018-12-25T10:31:01.515Z,102465.63
2018-12-25T10:33:29.746Z,102468.95
2018-12-25T10:35:58.032Z,102472.68
2018-12-25T10:38:26.246Z,102472.28
2018-12-25T10:40:54.469Z,102470.03
2018-12-25T10:43:22.701Z,102479.22
2018-12-25T10:45:50.920Z,102479.58
2018-12-25T10:48:19.167Z,102475.13
2018-12-25T10:50:47.355Z,102480.69
2018-12-25T10:53:15.575Z,102474.23
2018-12-25T10:55:43.790Z,102473.87
2018-12-25T10:58:11.986Z,102468.89
2018-12-25T11:00:42.361Z,102465.69
2018-12-25T11:03:10.596Z,102459.34
2018-12-25T11:05:38.805Z,102457.09
2018-12-25T11:08:07.033Z,102453.01
2018-12-25T11:10:35.247Z,102443.09
2018-12-25T11:13:03.470Z,102442.20
2018-12-25T11:15:31.704Z,102430.41
2018-12-25T11:17:59.921Z,102425.07
2018-12-25T11:20:29.204Z,102422.34
2018-12-25T11:22:57.437Z,102416.41
2018-12-25T11:25:25.658Z,102412.43
2018-12-25T11:27:53.869Z,102408.81
2018-12-25T11:30:22.061Z,102404.72
2018-12-25T11:32:50.267Z,102395.17
2018-12-25T11:35:18.471Z,102383.02
2018-12-25T11:37:46.691Z,102385.15
2018-12-25T11:40:14.883Z,102372.98
2018-12-25T11:42:43.111Z,102370.25
2018-12-25T11:45:11.333Z,102362.07
2018-12-25T11:47:39.533Z,102357.98
2018-12-25T11:50:07.764Z,102361.48
2018-12-25T11:52:35.960Z,102360.59
2018-12-25T11:55:04.207Z,102364.31
2018-12-25T11:57:32.432Z,102376.08
2018-12-25T12:00:00.655Z,102375.12
2018-12-25T12:02:28.863Z,102369.66
2018-12-25T12:04:57.080Z,102377.45
2018-12-25T12:07:25.285Z,102380.69
2018-12-25T12:09:53.500Z,102386.03
2018-12-25T12:12:21.742Z,102388.36
2018-12-25T12:14:49.924Z,102392.73
2018-12-25T12:17:18.139Z,102388.23
2018-12-25T12:19:46.371Z,102391.08
2018-12-25T12:22:14.581Z,102394.09
2018-12-25T12:24:42.805Z,102388.64
2018-12-25T12:27:11.020Z,102375.12
2018-12-25T12:29:39.251Z,102375.84
2018-12-25T12:32:07.471Z,102377.09
2018-12-25T12:34:35.705Z,102376.36
2018-12-25T12:37:03.901Z,102374.12
2018-12-25T12:39:32.157Z,102374.12
2018-12-25T12:42:00.355Z,102365.94
2018-12-25T12:44:28.571Z,102370.03
2018-12-25T12:46:56.797Z,102376.36
2018-12-25T12:49:25.000Z,102378.70
2018-12-25T12:51:53.217Z,102382.30
2018-12-25T12:54:21.397Z,102379.58
2018-12-25T12:56:49.627Z,102385.52
2018-12-25T12:59:17.863Z,102374.23
2018-12-25T13:01:45.404Z,102383.30
2018-12-25T13:04:12.989Z,102382.42
2018-12-25T13:06:40.502Z,102383.30
2018-12-25T13:09:08.023Z,102385.15
2018-12-25T13:11:35.557Z,102392.84
2018-12-25T13:14:03.095Z,102389.23
2018-12-25T13:16:30.603Z,102393.33
2018-12-25T13:18:58.141Z,102398.78
2018-12-25T13:21:25.657Z,102401.03
2018-12-25T13:23:53.215Z,102390.12
2018-12-25T13:26:20.727Z,102395.58
2018-12-25T13:28:48.214Z,102395.95
2018-12-25T13:31:15.749Z,102390.48
2018-12-25T13:33:43.242Z,102391.48
2018-12-25T13:36:10.763Z,102395.58
2018-12-25T13:38:38.288Z,102395.58
2018-12-25T13:41:05.785Z,102387.39
2018-12-25T13:43:33.361Z,102391.48
2018-12-25T13:46:00.902Z,102395.58
2018-12-25T13:48:28.392Z,102396.94
2018-12-25T13:50:55.937Z,102396.94
2018-12-25T13:53:24.310Z,102398.78
2018-12-25T13:55:51.840Z,102406.48
2018-12-25T13:58:19.368Z,102399.27
2018-12-25T14:00:46.866Z,102407.45
2018-12-25T14:03:14.380Z,102409.70
2018-12-25T14:05:41.940Z,102404.23
2018-12-25T14:08:09.464Z,102400.52
2018-12-25T14:10:36.981Z,102408.81
2018-12-25T14:13:05.155Z,102418.77
2018-12-25T14:15:33.354Z,102415.64
2018-12-25T14:18:01.583Z,102419.73
2018-12-25T14:20:29.804Z,102417.40
2018-12-25T14:22:58.030Z,102413.79
2018-12-25T14:25:26.240Z,102409.81
2018-12-25T14:27:54.462Z,102424.81
2018-12-25T14:30:22.696Z,102424.45
2018-12-25T14:32:50.908Z,102416.27
2018-12-25T14:35:19.107Z,102423.94
2018-12-25T14:37:46.774Z,102417.63
2018-12-25T14:40:14.292Z,102417.63
2018-12-25T14:42:41.824Z,102421.20
2018-12-25T14:45:09.375Z,102409.92
2018-12-25T14:47:36.884Z,102412.17
2018-12-25T14:50:06.290Z,102421.72
2018-12-25T14:52:33.794Z,102416.75
2018-12-25T14:55:01.365Z,102414.90
2018-12-25T14:57:28.901Z,102418.59
2018-12-25T14:59:56.432Z,102419.95
2018-12-25T15:02:23.983Z,102420.84
2018-12-25T15:04:51.549Z,102420.84
2018-12-25T15:07:19.156Z,102418.99
2018-12-25T15:09:46.690Z,102424.05
2018-12-25T15:12:14.232Z,102427.77
2018-12-25T15:14:41.781Z,102423.68
2018-12-25T15:17:09.294Z,102427.77
2018-12-25T15:19:36.826Z,102423.68
2018-12-25T15:22:04.339Z,102420.95
2018-12-25T15:24:31.845Z,102423.68
2018-12-25T15:26:59.371Z,102425.05
2018-12-25T15:29:26.878Z,102416.86
2018-12-25T15:31:54.410Z,102425.05
2018-12-25T15:34:21.928Z,102421.95
2018-12-25T15:36:49.454Z,102430.98
2018-12-25T15:39:16.974Z,102421.95
2018-12-25T15:41:44.510Z,102423.31
2018-12-25T15:44:12.064Z,102426.52
2018-12-25T15:46:39.564Z,102433.23
2018-12-25T15:49:07.091Z,102424.16
2018-12-25T15:51:34.622Z,102420.06
2018-12-25T15:54:02.223Z,102425.53
2018-12-25T15:56:29.734Z,102428.25
2018-12-25T15:58:57.268Z,102426.89
2018-12-25T16:01:24.784Z,102424.67
2018-12-25T16:03:52.286Z,102414.73
2018-12-25T16:06:19.819Z,102417.86
2018-12-25T16:08:47.340Z,102423.80
2018-12-25T16:11:16.693Z,102427.88
2018-12-25T16:13:44.119Z,102425.53
2018-12-25T16:16:11.660Z,102425.64
2018-12-25T16:18:39.203Z,102430.13
2018-12-25T16:21:06.708Z,102426.05
2018-12-25T16:23:34.241Z,102424.28
2018-12-25T16:26:01.754Z,102422.43
2018-12-25T16:28:29.266Z,102420.58
2018-12-25T16:30:56.782Z,102421.06
2018-12-25T16:33:24.302Z,102417.86
2018-12-25T16:35:51.814Z,102417.86
2018-12-25T16:38:19.341Z,102423.68
2018-12-25T16:40:46.878Z,102419.59
2018-12-25T16:43:14.374Z,102410.16
2018-12-25T16:45:41.900Z,102420.06
2018-12-25T16:48:09.410Z,102419.59
2018-12-25T16:50:36.928Z,102415.98
2018-12-25T16:53:04.479Z,102421.95
2018-12-25T16:55:32.055Z,102425.53
2018-12-25T16:57:59.592Z,102424.67
2018-12-25T17:00:27.090Z,102420.95
2018-12-25T17:02:54.614Z,102417.86
2018-12-25T17:05:22.119Z,102415.50
2018-12-25T17:07:49.642Z,102411.77
2018-12-25T17:10:17.179Z,102412.77
2018-12-25T17:12:44.684Z,102411.41
2018-12-25T17:15:12.209Z,102408.31
2018-12-25T17:17:39.705Z,102414.13
2018-12-25T17:20:07.816Z,102413.14
2018-12-25T17:22:35.393Z,102406.95
2018-12-25T17:25:03.011Z,102409.56
2018-12-25T17:27:30.514Z,102400.49
2018-12-25T17:29:58.050Z,102397.28
2018-12-25T17:32:25.595Z,102397.17
2018-12-25T17:34:53.101Z,102397.17
2018-12-25T17:37:20.622Z,102394.44
2018-12-25T17:39:48.165Z,102403.47
2018-12-25T17:42:15.685Z,102405.35
2018-12-25T17:44:43.227Z,102398.13
2018-12-25T17:47:10.789Z,102399.90
2018-12-25T17:49:38.341Z,102403.98
2018-12-25T17:52:05.860Z,102402.63
2018-12-25T17:54:33.380Z,102403.98
2018-12-25T17:57:01.537Z,102393.08
2018-12-25T17:59:29.113Z,102398.53
2018-12-25T18:01:56.671Z,102398.02
2018-12-25T18:04:24.351Z,102403.98
2018-12-25T18:06:51.864Z,102403.98
2018-12-25T18:09:19.395Z,102403.47
2018-12-25T18:11:46.921Z,102401.27
2018-12-25T18:14:14.428Z,102405.23
2018-12-25T18:16:41.977Z,102404.36
2018-12-25T18:19:09.512Z,102405.72
2018-12-25T18:21:37.024Z,102403.36
2018-12-25T18:24:04.576Z,102392.08
2018-12-25T18:26:32.121Z,102388.36
2018-12-25T18:28:59.650Z,102388.88
2018-12-25T18:31:27.170Z,102390.72
2018-12-25T18:33:54.707Z,102390.72
2018-12-25T18:36:22.235Z,102385.63
2018-12-25T18:38:49.783Z,102389.72
2018-12-25T18:41:17.314Z,102398.30
2018-12-25T18:43:44.818Z,102389.35
2018-12-25T18:46:12.336Z,102389.72
2018-12-25T18:48:39.860Z,102391.59
2018-12-25T18:51:08.008Z,102394.33
2018-12-25T18:53:36.228Z,102392.45
2018-12-25T18:56:04.451Z,102389.72
2018-12-25T18:58:32.664Z,102385.63
2018-12-25T19:01:00.926Z,102389.23
2018-12-25T19:03:29.133Z,102384.78
2018-12-25T19:05:57.356Z,102379.21
2018-12-25T19:08:25.556Z,102384.15
2018-12-25T19:10:53.780Z,102374.72
2018-12-25T19:13:22.027Z,102387.28
2018-12-25T19:15:50.234Z,102385.03
2018-12-25T19:18:18.458Z,102375.00
2018-12-25T19:20:46.670Z,102380.94
2018-12-25T19:23:14.894Z,102385.91
2018-12-25T19:25:43.106Z,102390.48
2018-12-25T19:28:11.348Z,102395.58
2018-12-25T19:30:39.560Z,102397.42
2018-12-25T19:33:07.776Z,102393.22
2018-12-25T19:35:36.007Z,102396.94
2018-12-25T19:38:04.244Z,102391.37
2018-12-25T19:40:32.461Z,102387.77
2018-12-25T19:43:00.680Z,102375.97
2018-12-25T19:45:29.226Z,102391.37
2018-12-25T19:47:57.470Z,102385.91
2018-12-25T19:50:25.674Z,102374.60
2018-12-25T19:52:53.892Z,102389.48
2018-12-25T19:55:22.115Z,102400.41
2018-12-25T19:57:50.336Z,102394.95
2018-12-25T20:00:18.547Z,102388.64
2018-12-25T20:02:47.921Z,102392.62
2018-12-25T20:05:19.414Z,102392.98
2018-12-25T20:08:05.860Z,102381.30
2018-12-25T20:10:46.620Z,102392.62
2018-12-25T20:13:35.076Z,102385.28
2018-12-25T20:16:32.308Z,102375.37
2018-12-25T20:19:09.369Z,102371.64
2018-12-25T20:21:40.822Z,102373.89
2018-12-25T20:24:20.862Z,102380.34
2018-12-25T20:27:10.450Z,102369.91
2018-12-25T20:30:00.321Z,102368.43
2018-12-25T20:32:55.879Z,102366.70
2018-12-25T20:35:44.348Z,102356.64
2018-12-25T20:38:30.639Z,102352.66
2018-12-25T20:41:13.947Z,102353.42
2018-12-25T20:44:04.420Z,102344.00
2018-12-25T20:46:54.902Z,102333.08
2018-12-25T20:49:38.419Z,102329.88
2018-12-25T20:52:32.531Z,102328.39
2018-12-25T20:55:10.057Z,102331.13
2018-12-25T20:58:07.040Z,102329.27
2018-12-25T21:00:56.658Z,102320.97
2018-12-25T21:03:42.996Z,102317.08
2018-12-25T21:06:36.755Z,102321.09
2018-12-25T21:09:35.416Z,102325.18
2018-12-25T21:12:18.374Z,102320.80
2018-12-25T21:15:16.596Z,102323.81
2018-12-25T21:17:56.412Z,102325.66
2018-12-25T21:20:44.436Z,102316.59
2018-12-25T21:23:49.260Z,102313.98
2018-12-25T21:26:53.840Z,102308.41
2018-12-25T21:29:22.168Z,102308.53
2018-12-25T21:31:50.400Z,102299.34
2018-12-25T21:34:18.626Z,102299.86
2018-12-25T21:36:49.623Z,102309.41
2018-12-25T21:39:17.872Z,102313.39
2018-12-25T21:41:46.058Z,102315.23
2018-12-25T21:44:14.291Z,102318.84
2018-12-25T21:46:42.496Z,102315.72
2018-12-25T21:49:11.650Z,102310.66
2018-12-25T21:51:39.888Z,102310.26
2018-12-25T21:54:08.112Z,102312.50
2018-12-25T21:56:36.308Z,102311.63
2018-12-25T21:59:04.541Z,102300.83
2018-12-25T22:01:32.758Z,102291.28
2018-12-25T22:04:01.006Z,102294.01
2018-12-25T22:06:29.211Z,102293.16
2018-12-25T22:08:57.439Z,102292.77
2018-12-25T22:11:25.656Z,102290.91
2018-12-25T22:13:53.872Z,102299.09
2018-12-25T22:16:22.254Z,102292.28
2018-12-25T22:18:50.647Z,102295.01
2018-12-25T22:21:18.890Z,102305.92
2018-12-25T22:23:47.086Z,102312.38
2018-12-25T22:26:15.321Z,102311.01
2018-12-25T22:28:43.547Z,102316.47
2018-12-25T22:31:11.849Z,102320.05
2018-12-25T22:33:40.067Z,102305.55
2018-12-25T22:36:08.276Z,102322.28
2018-12-25T22:38:36.512Z,102332.31
2018-12-25T22:41:04.719Z,102332.83
2018-12-25T22:43:32.939Z,102334.20
2018-12-25T22:46:01.138Z,102336.92
2018-12-25T22:48:29.368Z,102339.25
2018-12-25T22:50:57.557Z,102339.37
2018-12-25T22:53:25.776Z,102337.52
2018-12-25T22:55:54.010Z,102336.64
2018-12-25T22:58:22.235Z,102333.91
2018-12-25T23:00:50.465Z,102330.70
2018-12-25T23:03:18.670Z,102324.77
2018-12-25T23:05:46.896Z,102323.40
2018-12-25T23:08:15.102Z,102316.70
2018-12-25T23:10:43.336Z,102312.60
2018-12-25T23:13:11.546Z,102316.18
2018-12-25T23:15:39.760Z,102318.06
2018-12-25T23:18:08.009Z,102313.45
2018-12-25T23:20:36.207Z,102292.14
2018-12-25T23:23:04.400Z,102278.51
2018-12-25T23:25:32.619Z,102266.72
2018-12-25T23:28:00.858Z,102265.35
2018-12-25T23:30:29.092Z,102267.72
2018-12-25T23:32:57.316Z,102265.47
2018-12-25T23:35:25.558Z,102266.83
2018-12-25T23:37:53.759Z,102264.59
2018-12-25T23:40:21.998Z,102269.20
2018-12-25T23:42:50.203Z,102272.77
2018-12-25T23:45:18.433Z,102279.11
2018-12-25T23:47:46.617Z,102278.22
2018-12-25T23:50:14.839Z,102280.11
2018-12-25T23:52:43.077Z,102275.62
2018-12-25T23:55:11.279Z,102267.44
2018-12-25T23:57:39.514Z,102270.16
